sensor_id;sensor_type;location;lat;lon;timestamp;temperature;humidity
43047;DHT22;28672;49.358;8.780;2022-10-22T00:01:06;13.60;99.90
43047;DHT22;28672;49.358;8.780;2022-10-22T00:03:32;13.60;99.90
43047;DHT22;28672;49.358;8.780;2022-10-22T00:05:58;13.50;99.90
43047;DHT22;28672;49.358;8.780;2022-10-22T00:08:23;13.50;99.90
43047;DHT22;28672;49.358;8.780;2022-10-22T00:10:49;13.50;99.90
43047;DHT22;28672;49.358;8.780;2022-10-22T00:13:15;13.50;99.90
43047;DHT22;28672;49.358;8.780;2022-10-22T00:15:41;13.50;99.90
43047;DHT22;28672;49.358;8.780;2022-10-22T00:18:06;13.50;99.90
43047;DHT22;28672;49.358;8.780;2022-10-22T00:20:32;13.50;99.90
43047;DHT22;28672;49.358;8.780;2022-10-22T00:22:58;13.50;99.90
43047;DHT22;28672;49.358;8.780;2022-10-22T00:25:23;13.50;99.90
43047;DHT22;28672;49.358;8.780;2022-10-22T00:27:49;13.50;99.90
43047;DHT22;28672;49.358;8.780;2022-10-22T00:30:14;13.50;99.90
43047;DHT22;28672;49.358;8.780;2022-10-22T00:32:40;13.50;99.90
43047;DHT22;28672;49.358;8.780;2022-10-22T00:35:06;13.50;99.90
43047;DHT22;28672;49.358;8.780;2022-10-22T00:37:32;13.40;99.90
43047;DHT22;28672;49.358;8.780;2022-10-22T00:39:57;13.40;99.90
43047;DHT22;28672;49.358;8.780;2022-10-22T00:42:24;13.50;99.90
43047;DHT22;28672;49.358;8.780;2022-10-22T00:47:54;13.30;99.90
43047;DHT22;28672;49.358;8.780;2022-10-22T00:50:34;13.30;99.90
43047;DHT22;28672;49.358;8.780;2022-10-22T00:53:03;13.30;99.90
43047;DHT22;28672;49.358;8.780;2022-10-22T00:55:31;13.30;99.90
43047;DHT22;28672;49.358;8.780;2022-10-22T00:57:57;13.20;99.90
43047;DHT22;28672;49.358;8.780;2022-10-22T01:00:24;13.30;99.90
43047;DHT22;28672;49.358;8.780;2022-10-22T01:02:51;13.20;99.90
43047;DHT22;28672;49.358;8.780;2022-10-22T01:05:17;13.30;99.90
43047;DHT22;28672;49.358;8.780;2022-10-22T01:07:49;13.30;99.90
43047;DHT22;28672;49.358;8.780;2022-10-22T01:16:03;13.30;99.90
43047;DHT22;28672;49.358;8.780;2022-10-22T01:26:47;13.30;99.90
43047;DHT22;28672;49.358;8.780;2022-10-22T01:29:23;13.30;99.90
43047;DHT22;28672;49.358;8.780;2022-10-22T01:32:14;13.30;99.90
43047;DHT22;28672;49.358;8.780;2022-10-22T01:34:43;13.30;99.90
43047;DHT22;28672;49.358;8.780;2022-10-22T01:37:13;13.30;99.90
43047;DHT22;28672;49.358;8.780;2022-10-22T01:39:39;13.30;99.90
43047;DHT22;28672;49.358;8.780;2022-10-22T01:42:06;13.30;99.90
43047;DHT22;28672;49.358;8.780;2022-10-22T01:44:35;13.30;99.90
43047;DHT22;28672;49.358;8.780;2022-10-22T01:47:26;13.30;99.90
43047;DHT22;28672;49.358;8.780;2022-10-22T01:50:03;13.30;99.90
43047;DHT22;28672;49.358;8.780;2022-10-22T01:53:10;13.30;99.90
43047;DHT22;28672;49.358;8.780;2022-10-22T02:00:46;13.20;99.90
43047;DHT22;28672;49.358;8.780;2022-10-22T02:03:21;13.20;99.90
43047;DHT22;28672;49.358;8.780;2022-10-22T02:05:51;13.20;99.90
43047;DHT22;28672;49.358;8.780;2022-10-22T02:08:22;13.30;99.90
43047;DHT22;28672;49.358;8.780;2022-10-22T02:10:50;13.30;99.90
43047;DHT22;28672;49.358;8.780;2022-10-22T02:13:22;13.40;99.90
43047;DHT22;28672;49.358;8.780;2022-10-22T02:15:51;13.40;99.90
43047;DHT22;28672;49.358;8.780;2022-10-22T02:18:20;13.40;99.90
43047;DHT22;28672;49.358;8.780;2022-10-22T02:20:48;13.50;99.90
43047;DHT22;28672;49.358;8.780;2022-10-22T02:23:14;13.50;99.90
43047;DHT22;28672;49.358;8.780;2022-10-22T02:25:43;13.50;99.90
43047;DHT22;28672;49.358;8.780;2022-10-22T02:28:12;13.60;99.90
43047;DHT22;28672;49.358;8.780;2022-10-22T02:30:45;13.70;99.90
43047;DHT22;28672;49.358;8.780;2022-10-22T02:33:18;13.70;99.90
43047;DHT22;28672;49.358;8.780;2022-10-22T02:35:45;13.80;99.90
43047;DHT22;28672;49.358;8.780;2022-10-22T02:38:12;13.80;99.90
43047;DHT22;28672;49.358;8.780;2022-10-22T02:40:38;13.80;99.90
43047;DHT22;28672;49.358;8.780;2022-10-22T02:43:05;13.80;99.90
43047;DHT22;28672;49.358;8.780;2022-10-22T02:45:31;13.80;99.90
43047;DHT22;28672;49.358;8.780;2022-10-22T02:47:58;13.80;99.90
43047;DHT22;28672;49.358;8.780;2022-10-22T02:50:23;13.80;99.90
43047;DHT22;28672;49.358;8.780;2022-10-22T02:52:49;13.80;99.90
43047;DHT22;28672;49.358;8.780;2022-10-22T02:55:14;13.70;99.90
43047;DHT22;28672;49.358;8.780;2022-10-22T02:57:40;13.70;99.90
43047;DHT22;28672;49.358;8.780;2022-10-22T03:00:07;13.70;99.90
43047;DHT22;28672;49.358;8.780;2022-10-22T03:02:33;13.70;99.90
43047;DHT22;28672;49.358;8.780;2022-10-22T03:04:58;13.70;99.90
43047;DHT22;28672;49.358;8.780;2022-10-22T03:07:24;13.70;99.90
43047;DHT22;28672;49.358;8.780;2022-10-22T03:09:49;13.60;99.90
43047;DHT22;28672;49.358;8.780;2022-10-22T03:12:15;13.60;99.90
43047;DHT22;28672;49.358;8.780;2022-10-22T03:14:41;13.60;99.90
43047;DHT22;28672;49.358;8.780;2022-10-22T03:17:06;13.60;99.90
43047;DHT22;28672;49.358;8.780;2022-10-22T03:19:32;13.50;99.90
43047;DHT22;28672;49.358;8.780;2022-10-22T03:22:20;13.60;99.90
43047;DHT22;28672;49.358;8.780;2022-10-22T03:24:49;13.50;99.90
43047;DHT22;28672;49.358;8.780;2022-10-22T03:27:19;13.50;99.90
43047;DHT22;28672;49.358;8.780;2022-10-22T03:29:46;13.50;99.90
43047;DHT22;28672;49.358;8.780;2022-10-22T03:32:13;13.50;99.90
43047;DHT22;28672;49.358;8.780;2022-10-22T03:34:38;13.50;99.90
43047;DHT22;28672;49.358;8.780;2022-10-22T03:37:04;13.50;99.90
43047;DHT22;28672;49.358;8.780;2022-10-22T03:39:32;13.50;99.90
43047;DHT22;28672;49.358;8.780;2022-10-22T03:41:59;13.50;99.90
43047;DHT22;28672;49.358;8.780;2022-10-22T03:44:25;13.50;99.90
43047;DHT22;28672;49.358;8.780;2022-10-22T03:46:51;13.50;99.90
43047;DHT22;28672;49.358;8.780;2022-10-22T03:49:17;13.50;99.90
43047;DHT22;28672;49.358;8.780;2022-10-22T03:51:43;13.50;99.90
43047;DHT22;28672;49.358;8.780;2022-10-22T03:54:09;13.50;99.90
43047;DHT22;28672;49.358;8.780;2022-10-22T03:56:34;13.50;99.90
43047;DHT22;28672;49.358;8.780;2022-10-22T03:59:00;13.50;99.90
43047;DHT22;28672;49.358;8.780;2022-10-22T04:01:27;13.50;99.90
43047;DHT22;28672;49.358;8.780;2022-10-22T04:03:54;13.50;99.90
43047;DHT22;28672;49.358;8.780;2022-10-22T04:06:19;13.50;99.90
43047;DHT22;28672;49.358;8.780;2022-10-22T04:08:45;13.40;99.90
43047;DHT22;28672;49.358;8.780;2022-10-22T04:11:12;13.40;99.90
43047;DHT22;28672;49.358;8.780;2022-10-22T04:13:38;13.40;99.90
43047;DHT22;28672;49.358;8.780;2022-10-22T04:16:10;13.40;99.90
43047;DHT22;28672;49.358;8.780;2022-10-22T04:18:36;13.30;99.90
43047;DHT22;28672;49.358;8.780;2022-10-22T04:21:04;13.30;99.90
43047;DHT22;28672;49.358;8.780;2022-10-22T04:23:29;13.20;99.90
43047;DHT22;28672;49.358;8.780;2022-10-22T04:25:59;13.10;99.90
43047;DHT22;28672;49.358;8.780;2022-10-22T04:28:25;13.10;99.90
43047;DHT22;28672;49.358;8.780;2022-10-22T04:30:50;13.00;99.90
43047;DHT22;28672;49.358;8.780;2022-10-22T04:33:16;12.90;99.90
43047;DHT22;28672;49.358;8.780;2022-10-22T04:35:42;12.90;99.90
43047;DHT22;28672;49.358;8.780;2022-10-22T04:38:07;12.80;99.90
43047;DHT22;28672;49.358;8.780;2022-10-22T04:40:33;12.70;99.90
43047;DHT22;28672;49.358;8.780;2022-10-22T04:42:58;12.60;99.90
43047;DHT22;28672;49.358;8.780;2022-10-22T04:45:24;12.50;99.90
43047;DHT22;28672;49.358;8.780;2022-10-22T04:47:49;12.50;99.90
43047;DHT22;28672;49.358;8.780;2022-10-22T04:50:15;12.50;99.90
43047;DHT22;28672;49.358;8.780;2022-10-22T04:52:40;12.40;99.90
43047;DHT22;28672;49.358;8.780;2022-10-22T04:55:06;12.40;99.90
43047;DHT22;28672;49.358;8.780;2022-10-22T04:57:32;12.30;99.90
43047;DHT22;28672;49.358;8.780;2022-10-22T04:59:57;12.30;99.90
43047;DHT22;28672;49.358;8.780;2022-10-22T05:02:23;12.20;99.90
43047;DHT22;28672;49.358;8.780;2022-10-22T05:04:49;12.30;99.90
43047;DHT22;28672;49.358;8.780;2022-10-22T05:07:14;12.30;99.90
43047;DHT22;28672;49.358;8.780;2022-10-22T05:09:40;12.20;99.90
43047;DHT22;28672;49.358;8.780;2022-10-22T05:12:05;12.20;99.90
43047;DHT22;28672;49.358;8.780;2022-10-22T05:14:31;12.30;99.90
43047;DHT22;28672;49.358;8.780;2022-10-22T05:16:57;12.20;99.90
43047;DHT22;28672;49.358;8.780;2022-10-22T05:19:25;12.20;99.90
43047;DHT22;28672;49.358;8.780;2022-10-22T05:21:54;12.30;99.90
43047;DHT22;28672;49.358;8.780;2022-10-22T05:24:20;12.20;99.90
43047;DHT22;28672;49.358;8.780;2022-10-22T05:26:48;12.20;99.90
43047;DHT22;28672;49.358;8.780;2022-10-22T05:29:14;12.20;99.90
43047;DHT22;28672;49.358;8.780;2022-10-22T05:31:40;12.10;99.90
43047;DHT22;28672;49.358;8.780;2022-10-22T05:34:05;12.00;99.90
43047;DHT22;28672;49.358;8.780;2022-10-22T05:36:31;12.00;99.90
43047;DHT22;28672;49.358;8.780;2022-10-22T05:38:56;12.00;99.90
43047;DHT22;28672;49.358;8.780;2022-10-22T05:41:24;12.00;99.90
43047;DHT22;28672;49.358;8.780;2022-10-22T05:43:50;11.90;99.90
43047;DHT22;28672;49.358;8.780;2022-10-22T05:46:18;12.00;99.90
43047;DHT22;28672;49.358;8.780;2022-10-22T05:48:50;11.90;99.90
43047;DHT22;28672;49.358;8.780;2022-10-22T05:51:16;11.90;99.90
43047;DHT22;28672;49.358;8.780;2022-10-22T05:53:43;11.80;99.90
43047;DHT22;28672;49.358;8.780;2022-10-22T05:56:14;11.90;99.90
43047;DHT22;28672;49.358;8.780;2022-10-22T05:58:40;11.90;99.90
43047;DHT22;28672;49.358;8.780;2022-10-22T06:01:21;11.90;99.90
43047;DHT22;28672;49.358;8.780;2022-10-22T06:03:47;11.80;99.90
43047;DHT22;28672;49.358;8.780;2022-10-22T06:06:17;11.80;99.90
43047;DHT22;28672;49.358;8.780;2022-10-22T06:08:44;11.80;99.90
43047;DHT22;28672;49.358;8.780;2022-10-22T06:11:10;11.80;99.90
43047;DHT22;28672;49.358;8.780;2022-10-22T06:13:36;11.80;99.90
43047;DHT22;28672;49.358;8.780;2022-10-22T06:16:02;11.80;99.90
43047;DHT22;28672;49.358;8.780;2022-10-22T06:18:28;11.80;99.90
43047;DHT22;28672;49.358;8.780;2022-10-22T06:20:54;11.70;99.90
43047;DHT22;28672;49.358;8.780;2022-10-22T06:23:19;11.70;99.90
43047;DHT22;28672;49.358;8.780;2022-10-22T06:25:55;11.80;99.90
43047;DHT22;28672;49.358;8.780;2022-10-22T06:28:20;11.80;99.90
43047;DHT22;28672;49.358;8.780;2022-10-22T06:30:46;11.80;99.90
43047;DHT22;28672;49.358;8.780;2022-10-22T06:33:11;11.90;99.90
43047;DHT22;28672;49.358;8.780;2022-10-22T06:35:37;11.90;99.90
43047;DHT22;28672;49.358;8.780;2022-10-22T06:38:02;11.90;99.90
43047;DHT22;28672;49.358;8.780;2022-10-22T06:40:28;11.90;99.90
43047;DHT22;28672;49.358;8.780;2022-10-22T06:42:53;11.90;99.90
43047;DHT22;28672;49.358;8.780;2022-10-22T06:45:19;11.90;99.90
43047;DHT22;28672;49.358;8.780;2022-10-22T06:47:44;12.00;99.90
43047;DHT22;28672;49.358;8.780;2022-10-22T06:50:11;12.00;99.90
43047;DHT22;28672;49.358;8.780;2022-10-22T06:52:37;12.10;99.90
43047;DHT22;28672;49.358;8.780;2022-10-22T06:55:02;12.20;99.90
43047;DHT22;28672;49.358;8.780;2022-10-22T06:57:29;12.20;99.90
43047;DHT22;28672;49.358;8.780;2022-10-22T06:59:54;12.30;99.90
43047;DHT22;28672;49.358;8.780;2022-10-22T07:02:20;12.30;99.90
43047;DHT22;28672;49.358;8.780;2022-10-22T07:04:45;12.30;99.90
43047;DHT22;28672;49.358;8.780;2022-10-22T07:07:11;12.30;99.90
43047;DHT22;28672;49.358;8.780;2022-10-22T07:09:36;12.30;99.90
43047;DHT22;28672;49.358;8.780;2022-10-22T07:12:03;12.40;99.90
43047;DHT22;28672;49.358;8.780;2022-10-22T07:14:29;12.50;99.90
43047;DHT22;28672;49.358;8.780;2022-10-22T07:16:54;12.50;99.90
43047;DHT22;28672;49.358;8.780;2022-10-22T07:19:20;12.50;99.90
43047;DHT22;28672;49.358;8.780;2022-10-22T07:21:45;12.50;99.90
43047;DHT22;28672;49.358;8.780;2022-10-22T07:24:11;12.70;99.90
43047;DHT22;28672;49.358;8.780;2022-10-22T07:26:36;12.70;99.90
43047;DHT22;28672;49.358;8.780;2022-10-22T07:29:03;12.80;99.90
43047;DHT22;28672;49.358;8.780;2022-10-22T07:31:29;13.00;99.90
43047;DHT22;28672;49.358;8.780;2022-10-22T07:33:55;13.20;99.90
43047;DHT22;28672;49.358;8.780;2022-10-22T07:36:20;13.40;99.90
43047;DHT22;28672;49.358;8.780;2022-10-22T07:38:48;13.60;99.90
43047;DHT22;28672;49.358;8.780;2022-10-22T07:41:15;13.60;99.90
43047;DHT22;28672;49.358;8.780;2022-10-22T07:43:41;13.70;99.90
43047;DHT22;28672;49.358;8.780;2022-10-22T07:46:06;13.90;99.90
43047;DHT22;28672;49.358;8.780;2022-10-22T07:48:34;14.10;99.90
43047;DHT22;28672;49.358;8.780;2022-10-22T07:51:00;14.50;99.90
43047;DHT22;28672;49.358;8.780;2022-10-22T07:53:25;14.70;99.90
43047;DHT22;28672;49.358;8.780;2022-10-22T07:55:51;15.00;99.90
43047;DHT22;28672;49.358;8.780;2022-10-22T07:58:18;15.20;99.90
43047;DHT22;28672;49.358;8.780;2022-10-22T08:00:44;15.40;99.90
43047;DHT22;28672;49.358;8.780;2022-10-22T08:03:11;15.50;99.90
43047;DHT22;28672;49.358;8.780;2022-10-22T08:05:37;15.60;99.90
43047;DHT22;28672;49.358;8.780;2022-10-22T08:08:07;15.80;99.90
43047;DHT22;28672;49.358;8.780;2022-10-22T08:10:33;16.10;99.90
43047;DHT22;28672;49.358;8.780;2022-10-22T08:12:59;16.30;99.90
43047;DHT22;28672;49.358;8.780;2022-10-22T08:15:24;16.40;99.90
43047;DHT22;28672;49.358;8.780;2022-10-22T08:17:51;16.40;99.90
43047;DHT22;28672;49.358;8.780;2022-10-22T08:20:17;16.60;99.90
43047;DHT22;28672;49.358;8.780;2022-10-22T08:22:43;16.60;99.90
43047;DHT22;28672;49.358;8.780;2022-10-22T08:25:09;16.70;99.90
43047;DHT22;28672;49.358;8.780;2022-10-22T08:27:35;16.80;99.90
43047;DHT22;28672;49.358;8.780;2022-10-22T08:30:01;17.00;99.90
43047;DHT22;28672;49.358;8.780;2022-10-22T08:32:26;17.10;99.90
43047;DHT22;28672;49.358;8.780;2022-10-22T08:34:52;17.10;99.90
43047;DHT22;28672;49.358;8.780;2022-10-22T08:37:17;17.10;99.90
43047;DHT22;28672;49.358;8.780;2022-10-22T08:39:43;17.30;99.90
43047;DHT22;28672;49.358;8.780;2022-10-22T08:45:12;17.40;99.90
43047;DHT22;28672;49.358;8.780;2022-10-22T08:50:17;17.60;99.90
43047;DHT22;28672;49.358;8.780;2022-10-22T08:52:45;17.70;99.90
43047;DHT22;28672;49.358;8.780;2022-10-22T08:55:14;17.50;99.90
43047;DHT22;28672;49.358;8.780;2022-10-22T08:58:11;17.50;99.90
43047;DHT22;28672;49.358;8.780;2022-10-22T09:00:45;17.80;99.90
43047;DHT22;28672;49.358;8.780;2022-10-22T09:03:37;17.70;99.90
43047;DHT22;28672;49.358;8.780;2022-10-22T09:06:24;17.70;99.90
43047;DHT22;28672;49.358;8.780;2022-10-22T09:08:50;17.70;99.90
43047;DHT22;28672;49.358;8.780;2022-10-22T09:13:52;18.00;99.90
43047;DHT22;28672;49.358;8.780;2022-10-22T09:21:57;17.80;99.90
43047;DHT22;28672;49.358;8.780;2022-10-22T09:27:15;17.70;99.90
43047;DHT22;28672;49.358;8.780;2022-10-22T09:29:41;17.80;99.90
43047;DHT22;28672;49.358;8.780;2022-10-22T09:32:07;17.90;99.90
43047;DHT22;28672;49.358;8.780;2022-10-22T09:34:33;18.00;99.90
43047;DHT22;28672;49.358;8.780;2022-10-22T09:37:03;18.20;99.90
43047;DHT22;28672;49.358;8.780;2022-10-22T09:39:51;18.30;99.90
43047;DHT22;28672;49.358;8.780;2022-10-22T09:42:18;18.40;99.90
43047;DHT22;28672;49.358;8.780;2022-10-22T09:44:55;18.60;99.90
43047;DHT22;28672;49.358;8.780;2022-10-22T09:47:37;18.70;99.90
43047;DHT22;28672;49.358;8.780;2022-10-22T09:50:21;18.80;99.90
43047;DHT22;28672;49.358;8.780;2022-10-22T09:53:12;19.00;99.90
43047;DHT22;28672;49.358;8.780;2022-10-22T09:55:40;18.90;99.90
43047;DHT22;28672;49.358;8.780;2022-10-22T09:58:13;18.90;99.90
43047;DHT22;28672;49.358;8.780;2022-10-22T10:00:40;19.10;99.90
43047;DHT22;28672;49.358;8.780;2022-10-22T10:03:18;19.20;99.90
43047;DHT22;28672;49.358;8.780;2022-10-22T10:05:47;19.30;99.90
43047;DHT22;28672;49.358;8.780;2022-10-22T10:08:14;19.50;99.90
43047;DHT22;28672;49.358;8.780;2022-10-22T10:10:54;19.50;99.90
43047;DHT22;28672;49.358;8.780;2022-10-22T10:16:14;19.90;99.90
43047;DHT22;28672;49.358;8.780;2022-10-22T10:19:24;19.90;99.90
43047;DHT22;28672;49.358;8.780;2022-10-22T10:22:04;20.10;99.90
43047;DHT22;28672;49.358;8.780;2022-10-22T10:24:54;20.10;99.90
43047;DHT22;28672;49.358;8.780;2022-10-22T10:27:27;19.90;99.90
43047;DHT22;28672;49.358;8.780;2022-10-22T10:30:19;19.80;99.90
43047;DHT22;28672;49.358;8.780;2022-10-22T10:32:59;20.10;99.90
43047;DHT22;28672;49.358;8.780;2022-10-22T10:35:29;20.00;99.90
43047;DHT22;28672;49.358;8.780;2022-10-22T10:38:14;20.00;99.90
43047;DHT22;28672;49.358;8.780;2022-10-22T10:40:58;20.00;99.90
43047;DHT22;28672;49.358;8.780;2022-10-22T10:43:40;20.00;99.90
43047;DHT22;28672;49.358;8.780;2022-10-22T10:46:31;20.20;99.90
43047;DHT22;28672;49.358;8.780;2022-10-22T10:49:08;20.20;99.90
43047;DHT22;28672;49.358;8.780;2022-10-22T10:57:30;20.50;99.90
43047;DHT22;28672;49.358;8.780;2022-10-22T11:00:08;20.40;99.90
43047;DHT22;28672;49.358;8.780;2022-10-22T11:08:18;20.40;99.90
43047;DHT22;28672;49.358;8.780;2022-10-22T11:10:50;20.50;99.90
43047;DHT22;28672;49.358;8.780;2022-10-22T11:13:33;20.80;99.90
43047;DHT22;28672;49.358;8.780;2022-10-22T11:19:26;20.70;99.90
43047;DHT22;28672;49.358;8.780;2022-10-22T11:24:50;20.70;99.90
43047;DHT22;28672;49.358;8.780;2022-10-22T11:27:39;20.70;99.90
43047;DHT22;28672;49.358;8.780;2022-10-22T11:30:35;20.80;99.90
43047;DHT22;28672;49.358;8.780;2022-10-22T11:33:05;21.10;99.90
43047;DHT22;28672;49.358;8.780;2022-10-22T11:35:43;21.20;99.90
43047;DHT22;28672;49.358;8.780;2022-10-22T11:38:15;20.80;99.90
43047;DHT22;28672;49.358;8.780;2022-10-22T11:40:49;20.70;99.90
43047;DHT22;28672;49.358;8.780;2022-10-22T11:43:27;21.00;99.90
43047;DHT22;28672;49.358;8.780;2022-10-22T11:46:44;20.80;99.90
43047;DHT22;28672;49.358;8.780;2022-10-22T11:48:43;20.70;99.90
43047;DHT22;28672;49.358;8.780;2022-10-22T11:51:31;20.90;99.90
43047;DHT22;28672;49.358;8.780;2022-10-22T11:54:01;21.10;99.90
43047;DHT22;28672;49.358;8.780;2022-10-22T11:56:36;20.80;99.90
43047;DHT22;28672;49.358;8.780;2022-10-22T11:59:03;20.90;99.90
43047;DHT22;28672;49.358;8.780;2022-10-22T12:01:41;21.10;99.90
43047;DHT22;28672;49.358;8.780;2022-10-22T12:04:17;21.30;99.90
43047;DHT22;28672;49.358;8.780;2022-10-22T12:06:58;21.20;99.90
43047;DHT22;28672;49.358;8.780;2022-10-22T12:09:25;21.40;99.90
43047;DHT22;28672;49.358;8.780;2022-10-22T12:12:08;21.40;99.90
43047;DHT22;28672;49.358;8.780;2022-10-22T12:14:51;21.40;99.90
43047;DHT22;28672;49.358;8.780;2022-10-22T12:17:19;21.40;99.90
43047;DHT22;28672;49.358;8.780;2022-10-22T12:19:49;21.70;99.90
43047;DHT22;28672;49.358;8.780;2022-10-22T12:22:33;21.80;99.90
43047;DHT22;28672;49.358;8.780;2022-10-22T12:25:09;21.40;99.90
43047;DHT22;28672;49.358;8.780;2022-10-22T12:27:40;21.80;99.90
43047;DHT22;28672;49.358;8.780;2022-10-22T12:30:24;21.90;99.90
43047;DHT22;28672;49.358;8.780;2022-10-22T12:32:55;21.30;99.90
43047;DHT22;28672;49.358;8.780;2022-10-22T12:35:23;21.40;99.90
43047;DHT22;28672;49.358;8.780;2022-10-22T12:37:59;21.10;99.90
43047;DHT22;28672;49.358;8.780;2022-10-22T12:40:29;21.10;99.90
43047;DHT22;28672;49.358;8.780;2022-10-22T12:42:59;20.90;99.90
43047;DHT22;28672;49.358;8.780;2022-10-22T12:45:28;21.00;99.90
43047;DHT22;28672;49.358;8.780;2022-10-22T12:48:00;21.10;99.90
43047;DHT22;28672;49.358;8.780;2022-10-22T12:50:36;21.10;99.90
43047;DHT22;28672;49.358;8.780;2022-10-22T12:53:44;21.00;99.90
43047;DHT22;28672;49.358;8.780;2022-10-22T12:56:22;21.00;99.90
43047;DHT22;28672;49.358;8.780;2022-10-22T12:58:54;21.00;99.90
43047;DHT22;28672;49.358;8.780;2022-10-22T13:01:20;20.90;99.90
43047;DHT22;28672;49.358;8.780;2022-10-22T13:03:49;20.80;99.90
43047;DHT22;28672;49.358;8.780;2022-10-22T13:08:44;20.80;99.90
43047;DHT22;28672;49.358;8.780;2022-10-22T13:11:10;20.80;99.90
43047;DHT22;28672;49.358;8.780;2022-10-22T13:16:23;20.60;99.90
43047;DHT22;28672;49.358;8.780;2022-10-22T13:18:51;20.60;99.90
43047;DHT22;28672;49.358;8.780;2022-10-22T13:21:32;20.60;99.90
43047;DHT22;28672;49.358;8.780;2022-10-22T13:24:17;20.50;99.90
43047;DHT22;28672;49.358;8.780;2022-10-22T13:26:48;20.50;99.90
43047;DHT22;28672;49.358;8.780;2022-10-22T13:29:16;20.60;99.90
43047;DHT22;28672;49.358;8.780;2022-10-22T13:31:48;20.60;99.90
43047;DHT22;28672;49.358;8.780;2022-10-22T13:34:21;20.80;99.90
43047;DHT22;28672;49.358;8.780;2022-10-22T13:36:48;20.80;99.90
43047;DHT22;28672;49.358;8.780;2022-10-22T13:39:22;20.80;99.90
43047;DHT22;28672;49.358;8.780;2022-10-22T13:41:48;20.70;99.90
43047;DHT22;28672;49.358;8.780;2022-10-22T13:44:17;20.70;99.90
43047;DHT22;28672;49.358;8.780;2022-10-22T13:46:44;20.70;99.90
43047;DHT22;28672;49.358;8.780;2022-10-22T13:49:15;20.60;99.90
43047;DHT22;28672;49.358;8.780;2022-10-22T13:51:42;20.60;99.90
43047;DHT22;28672;49.358;8.780;2022-10-22T13:54:15;20.50;99.90
43047;DHT22;28672;49.358;8.780;2022-10-22T13:56:42;20.60;99.90
43047;DHT22;28672;49.358;8.780;2022-10-22T13:59:08;20.30;99.90
43047;DHT22;28672;49.358;8.780;2022-10-22T14:01:35;20.30;99.90
43047;DHT22;28672;49.358;8.780;2022-10-22T14:04:04;20.30;99.90
43047;DHT22;28672;49.358;8.780;2022-10-22T14:06:31;20.10;99.90
43047;DHT22;28672;49.358;8.780;2022-10-22T14:09:00;20.10;99.90
43047;DHT22;28672;49.358;8.780;2022-10-22T14:11:26;20.10;99.90
43047;DHT22;28672;49.358;8.780;2022-10-22T14:13:53;20.10;99.90
43047;DHT22;28672;49.358;8.780;2022-10-22T14:16:21;20.00;99.90
43047;DHT22;28672;49.358;8.780;2022-10-22T14:18:47;20.00;99.90
43047;DHT22;28672;49.358;8.780;2022-10-22T14:21:14;20.00;99.90
43047;DHT22;28672;49.358;8.780;2022-10-22T14:23:42;19.90;99.90
43047;DHT22;28672;49.358;8.780;2022-10-22T14:26:20;19.80;99.90
43047;DHT22;28672;49.358;8.780;2022-10-22T14:28:46;19.80;99.90
43047;DHT22;28672;49.358;8.780;2022-10-22T14:31:12;19.70;99.90
43047;DHT22;28672;49.358;8.780;2022-10-22T14:33:38;19.50;99.90
43047;DHT22;28672;49.358;8.780;2022-10-22T14:36:04;19.40;99.90
43047;DHT22;28672;49.358;8.780;2022-10-22T14:38:29;19.40;99.90
43047;DHT22;28672;49.358;8.780;2022-10-22T14:40:56;19.30;99.90
43047;DHT22;28672;49.358;8.780;2022-10-22T14:43:24;19.20;99.90
43047;DHT22;28672;49.358;8.780;2022-10-22T14:45:51;19.10;99.90
43047;DHT22;28672;49.358;8.780;2022-10-22T14:48:17;19.00;99.90
43047;DHT22;28672;49.358;8.780;2022-10-22T14:50:43;18.90;99.90
43047;DHT22;28672;49.358;8.780;2022-10-22T14:53:10;18.80;99.90
43047;DHT22;28672;49.358;8.780;2022-10-22T14:55:35;18.70;99.90
43047;DHT22;28672;49.358;8.780;2022-10-22T14:58:01;18.60;99.90
43047;DHT22;28672;49.358;8.780;2022-10-22T15:00:27;18.50;99.90
43047;DHT22;28672;49.358;8.780;2022-10-22T15:02:52;18.50;99.90
43047;DHT22;28672;49.358;8.780;2022-10-22T15:05:20;18.50;99.90
43047;DHT22;28672;49.358;8.780;2022-10-22T15:07:46;18.40;99.90
43047;DHT22;28672;49.358;8.780;2022-10-22T15:10:12;18.50;99.90
43047;DHT22;28672;49.358;8.780;2022-10-22T15:12:37;18.50;99.90
43047;DHT22;28672;49.358;8.780;2022-10-22T15:15:03;18.50;99.90
43047;DHT22;28672;49.358;8.780;2022-10-22T15:17:29;18.50;99.90
43047;DHT22;28672;49.358;8.780;2022-10-22T15:19:55;18.50;99.90
43047;DHT22;28672;49.358;8.780;2022-10-22T15:22:23;18.50;99.90
43047;DHT22;28672;49.358;8.780;2022-10-22T15:24:49;18.50;99.90
43047;DHT22;28672;49.358;8.780;2022-10-22T15:27:16;18.50;99.90
43047;DHT22;28672;49.358;8.780;2022-10-22T15:29:42;18.40;99.90
43047;DHT22;28672;49.358;8.780;2022-10-22T15:32:08;18.30;99.90
43047;DHT22;28672;49.358;8.780;2022-10-22T15:34:37;18.30;99.90
43047;DHT22;28672;49.358;8.780;2022-10-22T15:37:07;18.20;99.90
43047;DHT22;28672;49.358;8.780;2022-10-22T15:39:32;18.00;99.90
43047;DHT22;28672;49.358;8.780;2022-10-22T15:41:58;17.90;99.90
43047;DHT22;28672;49.358;8.780;2022-10-22T15:44:29;17.70;99.90
43047;DHT22;28672;49.358;8.780;2022-10-22T15:46:55;17.60;99.90
43047;DHT22;28672;49.358;8.780;2022-10-22T15:49:22;17.40;99.90
43047;DHT22;28672;49.358;8.780;2022-10-22T15:51:48;17.30;99.90
43047;DHT22;28672;49.358;8.780;2022-10-22T15:54:17;17.10;99.90
43047;DHT22;28672;49.358;8.780;2022-10-22T15:56:43;17.00;99.90
43047;DHT22;28672;49.358;8.780;2022-10-22T15:59:10;16.90;99.90
43047;DHT22;28672;49.358;8.780;2022-10-22T16:01:37;16.80;99.90
43047;DHT22;28672;49.358;8.780;2022-10-22T16:04:03;16.60;99.90
43047;DHT22;28672;49.358;8.780;2022-10-22T16:08:57;16.40;99.90
43047;DHT22;28672;49.358;8.780;2022-10-22T16:11:24;16.30;99.90
43047;DHT22;28672;49.358;8.780;2022-10-22T16:13:54;16.20;99.90
43047;DHT22;28672;49.358;8.780;2022-10-22T16:16:21;16.10;99.90
43047;DHT22;28672;49.358;8.780;2022-10-22T16:18:47;16.00;99.90
43047;DHT22;28672;49.358;8.780;2022-10-22T16:21:13;15.90;99.90
43047;DHT22;28672;49.358;8.780;2022-10-22T16:23:42;15.80;99.90
43047;DHT22;28672;49.358;8.780;2022-10-22T16:26:08;15.70;99.90
43047;DHT22;28672;49.358;8.780;2022-10-22T16:28:34;15.60;99.90
43047;DHT22;28672;49.358;8.780;2022-10-22T16:31:04;15.60;99.90
43047;DHT22;28672;49.358;8.780;2022-10-22T16:33:31;15.50;99.90
43047;DHT22;28672;49.358;8.780;2022-10-22T16:35:57;15.40;99.90
43047;DHT22;28672;49.358;8.780;2022-10-22T16:38:23;15.30;99.90
43047;DHT22;28672;49.358;8.780;2022-10-22T16:40:49;15.20;99.90
43047;DHT22;28672;49.358;8.780;2022-10-22T16:43:15;15.10;99.90
43047;DHT22;28672;49.358;8.780;2022-10-22T16:45:50;15.10;99.90
43047;DHT22;28672;49.358;8.780;2022-10-22T16:48:16;14.90;99.90
43047;DHT22;28672;49.358;8.780;2022-10-22T16:50:43;14.90;99.90